createdAt,value
2019-05-25T00:00:13.690Z,18.47
2019-05-25T00:02:42.688Z,18.40
2019-05-25T00:05:11.391Z,18.70
2019-05-25T00:07:40.077Z,18.43
2019-05-25T00:10:09.047Z,21.03
2019-05-25T00:12:37.649Z,21.63
2019-05-25T00:15:07.272Z,20.73
2019-05-25T00:17:35.944Z,20.70
2019-05-25T00:20:05.644Z,21.00
2019-05-25T00:22:34.324Z,20.57
2019-05-25T00:25:02.915Z,20.40
2019-05-25T00:27:31.801Z,20.57
2019-05-25T00:30:00.449Z,20.47
2019-05-25T00:32:29.127Z,22.27
2019-05-25T00:34:57.699Z,21.27
2019-05-25T00:37:26.279Z,22.20
2019-05-25T00:39:54.967Z,22.33
2019-05-25T00:42:23.571Z,23.33
2019-05-25T00:44:52.313Z,22.43
2019-05-25T00:47:27.369Z,21.97
2019-05-25T00:49:56.015Z,23.47
2019-05-25T00:52:24.654Z,25.43
2019-05-25T00:54:53.343Z,27.60
2019-05-25T00:57:21.904Z,28.90
2019-05-25T00:59:50.502Z,30.57
2019-05-25T01:02:19.492Z,28.73
2019-05-25T01:04:48.101Z,27.50
2019-05-25T01:07:16.673Z,27.87
2019-05-25T01:09:45.279Z,27.80
2019-05-25T01:12:14.180Z,27.73
2019-05-25T01:14:42.844Z,26.10
2019-05-25T01:17:11.429Z,29.00
2019-05-25T01:19:40.044Z,28.90
2019-05-25T01:22:08.915Z,28.73
2019-05-25T01:24:44.480Z,29.27
2019-05-25T01:27:08.160Z,31.33
2019-05-25T01:29:36.757Z,33.07
2019-05-25T01:32:05.337Z,35.00
2019-05-25T01:34:34.314Z,32.97
2019-05-25T01:37:02.902Z,33.53
2019-05-25T01:39:31.468Z,34.93
2019-05-25T01:42:00.126Z,34.60
2019-05-25T01:44:28.707Z,33.33
2019-05-25T01:46:57.296Z,33.90
2019-05-25T01:49:25.909Z,38.73
2019-05-25T01:51:54.474Z,41.07
2019-05-25T01:54:23.045Z,43.87
2019-05-25T01:56:51.611Z,42.23
2019-05-25T01:59:20.489Z,41.33
2019-05-25T02:01:49.147Z,38.67
2019-05-25T02:04:17.737Z,35.60
2019-05-25T02:06:46.768Z,36.87
2019-05-25T02:09:15.341Z,40.07
2019-05-25T02:11:43.954Z,42.43
2019-05-25T02:14:12.520Z,42.37
2019-05-25T02:16:41.184Z,42.20
2019-05-25T02:19:09.749Z,40.00
2019-05-25T02:21:38.622Z,40.63
2019-05-25T02:24:07.269Z,37.50
2019-05-25T02:26:35.922Z,37.80
2019-05-25T02:29:04.749Z,36.93
2019-05-25T02:31:33.337Z,36.40
2019-05-25T02:34:01.995Z,38.20
2019-05-25T02:36:30.583Z,39.20
2019-05-25T02:38:59.174Z,38.30
2019-05-25T02:41:28.229Z,38.17
2019-05-25T02:43:56.871Z,38.80
2019-05-25T02:46:25.452Z,39.93
2019-05-25T02:48:54.045Z,38.67
2019-05-25T02:51:22.668Z,38.43
2019-05-25T02:53:51.389Z,38.20
2019-05-25T02:56:19.985Z,39.03
2019-05-25T02:58:48.957Z,39.70
2019-05-25T03:01:17.550Z,40.83
2019-05-25T03:03:46.209Z,42.77
2019-05-25T03:06:15.599Z,41.63
2019-05-25T03:08:45.460Z,39.23
2019-05-25T03:11:14.096Z,40.97
2019-05-25T03:13:42.845Z,40.53
2019-05-25T03:16:11.423Z,42.53
2019-05-25T03:18:40.095Z,41.30
2019-05-25T03:21:08.670Z,43.53
2019-05-25T03:23:37.327Z,41.50
2019-05-25T03:26:05.933Z,40.57
2019-05-25T03:28:34.597Z,41.47
2019-05-25T03:31:03.186Z,38.37
2019-05-25T03:33:31.775Z,39.43
2019-05-25T03:36:00.419Z,41.73
2019-05-25T03:38:29.033Z,41.83
2019-05-25T03:40:57.920Z,40.37
2019-05-25T03:43:26.508Z,41.60
2019-05-25T03:45:55.083Z,40.23
2019-05-25T03:48:23.709Z,41.27
2019-05-25T03:50:52.338Z,44.80
2019-05-25T03:53:21.197Z,40.20
2019-05-25T03:56:04.681Z,40.73
2019-05-25T03:58:20.498Z,41.70
2019-05-25T04:00:49.495Z,40.53
2019-05-25T04:03:18.482Z,41.10
2019-05-25T04:05:47.152Z,42.23
2019-05-25T04:08:15.728Z,42.20
2019-05-25T04:10:44.328Z,41.57
2019-05-25T04:13:12.893Z,43.87
2019-05-25T04:15:41.481Z,44.37
2019-05-25T04:18:10.137Z,43.33
2019-05-25T04:20:38.735Z,44.37
2019-05-25T04:23:07.389Z,43.47
2019-05-25T04:25:36.303Z,42.43
2019-05-25T04:28:05.002Z,44.70
2019-05-25T04:30:33.576Z,42.90
2019-05-25T04:33:02.250Z,43.07
2019-05-25T04:35:30.840Z,44.87
2019-05-25T04:37:59.499Z,44.40
2019-05-25T04:40:28.081Z,45.37
2019-05-25T04:42:56.836Z,43.30
2019-05-25T04:45:25.747Z,43.77
2019-05-25T04:47:54.344Z,45.10
2019-05-25T04:50:22.993Z,44.03
2019-05-25T04:52:51.576Z,42.87
2019-05-25T04:55:20.569Z,42.40
2019-05-25T04:57:49.240Z,43.30
2019-05-25T05:00:17.968Z,42.77
2019-05-25T05:02:46.613Z,42.33
2019-05-25T05:05:15.362Z,42.50
2019-05-25T05:07:43.932Z,43.43
2019-05-25T05:10:12.657Z,41.47
2019-05-25T05:12:41.241Z,40.83
2019-05-25T05:15:10.398Z,41.93
2019-05-25T05:17:38.992Z,43.47
2019-05-25T05:20:09.121Z,42.13
2019-05-25T05:22:37.788Z,42.03
2019-05-25T05:25:08.139Z,41.80
2019-05-25T05:27:37.330Z,41.37
2019-05-25T05:30:08.354Z,39.37
2019-05-25T05:32:37.062Z,41.30
2019-05-25T05:35:09.348Z,38.80
2019-05-25T05:37:39.834Z,38.93
2019-05-25T05:40:09.454Z,37.20
2019-05-25T05:42:39.752Z,38.33
2019-05-25T05:45:09.183Z,38.93
2019-05-25T05:47:37.894Z,37.50
2019-05-25T05:50:08.358Z,38.53
2019-05-25T05:52:40.257Z,38.43
2019-05-25T05:55:10.981Z,38.43
2019-05-25T05:57:39.643Z,38.90
2019-05-25T06:00:10.442Z,36.97
2019-05-25T06:02:39.050Z,37.33
2019-05-25T06:05:08.472Z,37.03
2019-05-25T06:07:37.129Z,38.13
2019-05-25T06:10:07.235Z,38.40
2019-05-25T06:12:35.829Z,37.20
2019-05-25T06:15:07.015Z,38.40
2019-05-25T06:17:35.622Z,38.67
2019-05-25T06:20:06.428Z,38.07
2019-05-25T06:22:35.118Z,38.60
2019-05-25T06:25:05.311Z,38.23
2019-05-25T06:27:34.359Z,38.93
2019-05-25T06:30:03.454Z,39.57
2019-05-25T06:32:32.346Z,38.10
2019-05-25T06:35:00.997Z,39.93
2019-05-25T06:37:29.565Z,37.87
2019-05-25T06:39:58.155Z,36.47
2019-05-25T06:42:26.759Z,34.90
2019-05-25T06:44:55.321Z,32.53
2019-05-25T06:47:24.285Z,32.70
2019-05-25T06:49:52.866Z,32.63
2019-05-25T06:52:21.520Z,33.30
2019-05-25T06:54:50.114Z,32.07
2019-05-25T06:57:18.678Z,32.63
2019-05-25T06:59:47.346Z,30.20
2019-05-25T07:02:15.914Z,29.57
2019-05-25T07:04:44.496Z,27.93
2019-05-25T07:07:13.132Z,29.00
2019-05-25T07:09:41.815Z,27.33
2019-05-25T07:12:10.470Z,26.70
2019-05-25T07:14:39.048Z,24.57
2019-05-25T07:17:08.062Z,25.33
2019-05-25T07:19:36.643Z,25.07
2019-05-25T07:22:05.385Z,24.73
2019-05-25T07:24:33.956Z,24.90
2019-05-25T07:27:02.584Z,23.13
2019-05-25T07:29:31.215Z,21.07
2019-05-25T07:31:59.936Z,21.40
2019-05-25T07:34:28.506Z,21.57
2019-05-25T07:36:57.140Z,20.37
2019-05-25T07:39:26.079Z,20.43
2019-05-25T07:41:54.713Z,20.30
2019-05-25T07:44:23.337Z,20.27
2019-05-25T07:46:51.927Z,20.63
2019-05-25T07:49:20.513Z,19.13
2019-05-25T07:51:49.132Z,20.20
2019-05-25T07:54:17.792Z,19.63
2019-05-25T07:56:46.371Z,20.43
2019-05-25T07:59:15.024Z,20.10
2019-05-25T08:01:43.554Z,19.27
2019-05-25T08:04:12.107Z,20.47
2019-05-25T08:06:40.683Z,20.07
2019-05-25T08:09:09.395Z,21.10
2019-05-25T08:11:38.003Z,20.73
2019-05-25T08:14:07.018Z,19.60
2019-05-25T08:16:35.915Z,20.23
2019-05-25T08:19:04.644Z,20.53
2019-05-25T08:21:33.234Z,20.93
2019-05-25T08:24:01.794Z,21.90
2019-05-25T08:26:30.652Z,21.77
2019-05-25T08:28:59.747Z,20.87
2019-05-25T08:31:28.631Z,21.87
2019-05-25T08:33:57.681Z,22.53
2019-05-25T08:36:29.560Z,21.47
2019-05-25T08:38:56.685Z,22.37
2019-05-25T08:41:25.676Z,21.20
2019-05-25T08:43:55.172Z,22.07
2019-05-25T08:46:23.749Z,21.93
2019-05-25T08:48:52.324Z,21.73
2019-05-25T08:51:20.960Z,20.83
2019-05-25T08:53:49.618Z,22.53
2019-05-25T08:56:18.187Z,21.87
2019-05-25T08:58:48.687Z,21.67
2019-05-25T09:01:16.983Z,21.53
2019-05-25T09:03:45.576Z,21.43
2019-05-25T09:06:14.513Z,21.10
2019-05-25T09:08:43.402Z,22.70
2019-05-25T09:11:12.046Z,20.87
2019-05-25T09:13:40.628Z,21.60
2019-05-25T09:16:09.183Z,22.13
2019-05-25T09:18:37.834Z,21.50
2019-05-25T09:21:06.851Z,21.93
2019-05-25T09:23:35.773Z,22.30
2019-05-25T09:26:04.569Z,23.43
2019-05-25T09:28:33.157Z,22.13
2019-05-25T09:31:01.769Z,21.80
2019-05-25T09:33:30.408Z,22.57
2019-05-25T09:35:58.985Z,22.67
2019-05-25T09:38:27.582Z,23.20
2019-05-25T09:40:56.171Z,21.73
2019-05-25T09:43:24.786Z,24.03
2019-05-25T09:45:53.876Z,24.07
2019-05-25T09:48:22.522Z,22.63
2019-05-25T09:50:51.197Z,23.50
2019-05-25T09:53:19.849Z,22.43
2019-05-25T09:55:48.441Z,22.57
2019-05-25T09:58:17.090Z,24.17
2019-05-25T10:00:45.764Z,23.77
2019-05-25T10:03:14.336Z,23.80
2019-05-25T10:05:42.973Z,23.90
2019-05-25T10:08:11.622Z,23.70
2019-05-25T10:10:40.219Z,23.53
2019-05-25T10:13:08.872Z,23.43
2019-05-25T10:15:37.454Z,22.77
2019-05-25T10:18:06.027Z,23.20
2019-05-25T10:20:34.615Z,23.07
2019-05-25T10:23:03.244Z,24.80
2019-05-25T10:25:31.879Z,23.37
2019-05-25T10:28:22.521Z,26.80
2019-05-25T10:30:57.525Z,25.10
2019-05-25T10:33:26.481Z,26.63
2019-05-25T10:35:55.151Z,28.17
2019-05-25T10:38:24.283Z,27.97
2019-05-25T10:40:52.869Z,29.10
2019-05-25T10:43:21.562Z,28.30
2019-05-25T10:45:50.211Z,29.10
2019-05-25T10:48:18.861Z,28.87
2019-05-25T10:50:47.661Z,29.33
2019-05-25T10:53:16.426Z,28.57
2019-05-25T10:55:45.177Z,28.53
2019-05-25T10:58:15.394Z,30.53
2019-05-25T11:00:44.089Z,30.93
2019-05-25T11:03:12.727Z,30.47
2019-05-25T11:05:41.342Z,32.80
2019-05-25T11:08:10.520Z,33.87
2019-05-25T11:10:41.296Z,34.33
2019-05-25T11:13:11.615Z,30.63
2019-05-25T11:15:40.608Z,30.63
2019-05-25T11:18:09.636Z,31.03
2019-05-25T11:20:39.394Z,32.13
2019-05-25T11:23:11.583Z,34.57
2019-05-25T11:25:40.260Z,31.73
2019-05-25T11:28:08.912Z,31.87
2019-05-25T11:30:37.505Z,32.27
2019-05-25T11:33:06.124Z,31.90
2019-05-25T11:35:34.876Z,32.10
2019-05-25T11:38:03.530Z,32.33
2019-05-25T11:40:32.124Z,31.00
2019-05-25T11:43:00.701Z,29.87
2019-05-25T11:45:29.398Z,28.07
2019-05-25T11:47:57.902Z,27.93
2019-05-25T11:50:26.549Z,24.67
2019-05-25T11:52:55.242Z,26.50
2019-05-25T11:55:23.938Z,24.07
2019-05-25T11:57:52.566Z,25.17
2019-05-25T12:00:25.570Z,24.97
2019-05-25T12:02:54.062Z,24.57
2019-05-25T12:05:22.699Z,22.63
2019-05-25T12:07:51.350Z,22.47
2019-05-25T12:10:20.454Z,24.07
2019-05-25T12:12:49.014Z,22.83
2019-05-25T12:15:17.813Z,23.40
2019-05-25T12:17:46.469Z,23.07
2019-05-25T12:20:15.671Z,23.00
2019-05-25T12:22:44.261Z,23.70
2019-05-25T12:25:13.461Z,23.33
2019-05-25T12:27:42.516Z,23.60
2019-05-25T12:30:11.829Z,24.33
2019-05-25T12:32:40.503Z,26.33
2019-05-25T12:35:09.839Z,25.13
2019-05-25T12:37:38.420Z,23.43
2019-05-25T12:40:08.534Z,23.87
2019-05-25T12:42:37.196Z,22.73
2019-05-25T12:45:07.003Z,21.23
2019-05-25T12:47:37.157Z,22.40
2019-05-25T12:50:08.786Z,22.00
2019-05-25T12:52:37.434Z,23.10
2019-05-25T12:55:06.905Z,21.47
2019-05-25T12:57:35.709Z,21.17
2019-05-25T13:00:15.653Z,21.83
2019-05-25T13:02:37.095Z,20.80
2019-05-25T13:05:06.145Z,17.13
2019-05-25T13:07:34.883Z,18.83
2019-05-25T13:10:05.242Z,17.67
2019-05-25T13:12:35.354Z,16.27
2019-05-25T13:15:06.440Z,18.00
2019-05-25T13:17:35.260Z,15.40
2019-05-25T13:20:05.763Z,8.60
2019-05-25T13:22:34.314Z,11.53
2019-05-25T13:25:04.735Z,12.00
2019-05-25T13:27:33.299Z,10.67
2019-05-25T13:30:03.343Z,13.90
2019-05-25T13:32:32.238Z,15.27
2019-05-25T13:35:01.202Z,16.93
2019-05-25T13:37:29.771Z,16.50
2019-05-25T13:39:58.333Z,15.20
2019-05-25T13:42:26.921Z,14.67
2019-05-25T13:44:55.791Z,15.13
2019-05-25T13:47:24.521Z,15.27
2019-05-25T13:49:53.018Z,14.07
2019-05-25T13:52:21.669Z,14.80
2019-05-25T13:54:50.234Z,12.80
2019-05-25T13:57:22.051Z,13.70
2019-05-25T13:59:50.594Z,13.10
2019-05-25T14:02:19.267Z,11.23
2019-05-25T14:04:47.989Z,10.40
2019-05-25T14:07:16.640Z,10.97
2019-05-25T14:09:45.353Z,10.83
2019-05-25T14:12:13.950Z,10.23
2019-05-25T14:14:42.622Z,10.08
2019-05-25T14:17:11.275Z,10.40
2019-05-25T14:19:41.474Z,9.60
2019-05-25T14:22:10.076Z,9.98
2019-05-25T14:24:38.678Z,8.80
2019-05-25T14:27:07.739Z,7.78
2019-05-25T14:29:36.368Z,9.43
2019-05-25T14:32:05.081Z,9.43
2019-05-25T14:34:33.726Z,5.97
2019-05-25T14:37:02.292Z,7.25
2019-05-25T14:39:30.941Z,7.60
2019-05-25T14:41:59.516Z,6.03
2019-05-25T14:44:28.106Z,7.20
2019-05-25T14:46:56.779Z,5.17
2019-05-25T14:49:25.834Z,4.37
2019-05-25T14:51:54.488Z,4.75
2019-05-25T14:54:23.092Z,5.12
2019-05-25T14:56:51.585Z,4.97
2019-05-25T14:59:20.119Z,4.92
2019-05-25T15:02:01.336Z,4.15
2019-05-25T15:04:18.969Z,5.00
2019-05-25T15:06:47.571Z,4.60
2019-05-25T15:09:16.198Z,4.50
2019-05-25T15:11:44.784Z,3.62
2019-05-25T15:14:13.395Z,4.72
2019-05-25T15:16:42.093Z,3.70
2019-05-25T15:19:11.079Z,3.62
2019-05-25T15:21:39.750Z,4.25
2019-05-25T15:24:08.411Z,4.40
2019-05-25T15:26:37.182Z,4.70
2019-05-25T15:29:05.812Z,4.30
2019-05-25T15:31:34.547Z,4.83
2019-05-25T15:34:03.385Z,4.10
2019-05-25T15:36:31.939Z,3.90
2019-05-25T15:39:00.594Z,4.22
2019-05-25T15:41:29.175Z,3.98
2019-05-25T15:43:57.770Z,3.90
2019-05-25T15:46:26.342Z,4.62
2019-05-25T15:48:54.970Z,4.40
2019-05-25T15:51:23.600Z,3.25
2019-05-25T15:53:52.192Z,4.40
2019-05-25T15:56:21.176Z,4.55
2019-05-25T15:58:50.075Z,4.30
2019-05-25T16:01:18.689Z,4.97
2019-05-25T16:03:47.270Z,4.90
2019-05-25T16:06:15.847Z,4.62
2019-05-25T16:08:44.508Z,4.97
2019-05-25T16:11:13.246Z,4.37
2019-05-25T16:13:41.838Z,3.98
2019-05-25T16:16:10.457Z,4.22
2019-05-25T16:18:39.032Z,4.87
2019-05-25T16:21:07.701Z,4.85
2019-05-25T16:23:36.276Z,4.42
2019-05-25T16:26:04.990Z,4.47
2019-05-25T16:28:33.632Z,3.60
2019-05-25T16:31:02.195Z,3.92
2019-05-25T16:33:30.831Z,4.20
2019-05-25T16:35:59.753Z,4.70
2019-05-25T16:38:28.426Z,3.85
2019-05-25T16:40:57.451Z,4.08
2019-05-25T16:43:26.152Z,3.87
2019-05-25T16:45:54.801Z,4.00
2019-05-25T16:48:23.437Z,4.10
2019-05-25T16:50:52.019Z,4.00
2019-05-25T16:53:21.088Z,3.67
2019-05-25T16:55:49.714Z,3.15
2019-05-25T16:58:18.362Z,3.62
2019-05-25T17:00:46.948Z,3.90
2019-05-25T17:03:27.455Z,4.40
2019-05-25T17:05:45.845Z,4.22
2019-05-25T17:08:14.542Z,4.22
2019-05-25T17:10:43.570Z,5.05
2019-05-25T17:13:12.205Z,5.03
2019-05-25T17:15:40.826Z,5.25
2019-05-25T17:18:09.394Z,5.87
2019-05-25T17:20:38.061Z,6.00
2019-05-25T17:23:06.643Z,5.60
2019-05-25T17:25:35.299Z,6.13
2019-05-25T17:28:03.995Z,6.33
2019-05-25T17:30:38.860Z,6.40
2019-05-25T17:33:07.596Z,5.67
2019-05-25T17:35:36.664Z,6.00
2019-05-25T17:38:05.759Z,6.40
2019-05-25T17:40:34.709Z,6.57
2019-05-25T17:43:03.328Z,7.27
2019-05-25T17:45:32.030Z,8.00
2019-05-25T17:48:00.938Z,8.13
2019-05-25T17:53:16.843Z,8.57
2019-05-25T17:55:45.434Z,8.63
2019-05-25T18:01:10.805Z,8.60
2019-05-25T18:03:39.416Z,8.27
2019-05-25T18:06:08.074Z,8.97
2019-05-25T18:08:36.946Z,9.10
2019-05-25T18:11:06.617Z,8.93
2019-05-25T18:13:35.263Z,9.93
2019-05-25T18:16:03.978Z,10.90
2019-05-25T18:18:32.544Z,9.80
2019-05-25T18:21:01.227Z,10.50
2019-05-25T18:23:30.131Z,11.23
2019-05-25T18:25:58.899Z,11.30
2019-05-25T18:28:27.529Z,10.73
2019-05-25T18:30:56.113Z,12.03
2019-05-25T18:33:24.699Z,10.77
2019-05-25T18:35:53.341Z,11.83
2019-05-25T18:38:22.008Z,11.93
2019-05-25T18:40:50.926Z,11.77
2019-05-25T18:43:19.603Z,11.80
2019-05-25T18:45:48.248Z,11.13
2019-05-25T18:48:16.833Z,11.13
2019-05-25T18:50:45.573Z,11.07
2019-05-25T18:53:14.719Z,10.40
2019-05-25T18:55:43.380Z,10.97
2019-05-25T18:58:11.987Z,11.13
2019-05-25T19:00:40.643Z,12.03
2019-05-25T19:03:09.353Z,12.27
2019-05-25T19:05:37.878Z,13.43
2019-05-25T19:08:06.426Z,12.83
2019-05-25T19:10:35.099Z,13.50
2019-05-25T19:13:04.041Z,13.90
2019-05-25T19:15:32.609Z,12.67
2019-05-25T19:18:01.178Z,14.23
2019-05-25T19:20:29.839Z,13.73
2019-05-25T19:22:58.391Z,12.67
2019-05-25T19:25:27.089Z,13.27
2019-05-25T19:27:55.675Z,13.50
2019-05-25T19:30:24.773Z,13.27
2019-05-25T19:32:53.334Z,12.83
2019-05-25T19:35:22.246Z,12.27
2019-05-25T19:37:50.945Z,13.60
2019-05-25T19:40:19.665Z,12.07
2019-05-25T19:42:50.024Z,12.60
2019-05-25T19:45:19.118Z,11.20
2019-05-25T19:47:47.737Z,11.80
2019-05-25T19:50:17.777Z,13.17
2019-05-25T19:52:46.444Z,12.50
2019-05-25T19:55:15.680Z,11.70
2019-05-25T19:57:45.318Z,12.07
2019-05-25T20:00:14.933Z,12.17
2019-05-25T20:02:43.530Z,11.67
2019-05-25T20:05:16.865Z,12.43
2019-05-25T20:07:42.692Z,10.97
2019-05-25T20:10:12.630Z,12.20
2019-05-25T20:12:41.242Z,12.40
2019-05-25T20:15:10.669Z,11.23
2019-05-25T20:17:39.696Z,11.70
2019-05-25T20:20:11.528Z,11.93
2019-05-25T20:22:40.172Z,11.27
2019-05-25T20:25:08.890Z,11.20
2019-05-25T20:27:37.530Z,10.37
2019-05-25T20:30:07.616Z,11.00
2019-05-25T20:32:36.224Z,11.63
2019-05-25T20:35:06.649Z,11.33
2019-05-25T20:37:35.316Z,11.27
2019-05-25T20:40:05.763Z,11.47
2019-05-25T20:42:34.685Z,10.77
2019-05-25T20:45:03.543Z,12.80
2019-05-25T20:47:32.156Z,11.83
2019-05-25T20:50:00.721Z,12.03
2019-05-25T20:52:29.372Z,12.00
2019-05-25T20:54:57.969Z,11.77
2019-05-25T20:57:26.541Z,11.00
2019-05-25T20:59:55.206Z,11.47
2019-05-25T21:02:23.856Z,11.07
2019-05-25T21:04:52.448Z,11.53
2019-05-25T21:07:21.385Z,12.20
2019-05-25T21:09:50.276Z,11.07
2019-05-25T21:12:19.305Z,11.80
2019-05-25T21:14:47.873Z,11.83
2019-05-25T21:17:16.442Z,12.13
2019-05-25T21:19:45.021Z,11.53
2019-05-25T21:22:13.587Z,12.60
2019-05-25T21:24:42.152Z,13.20
2019-05-25T21:27:10.758Z,13.37
2019-05-25T21:29:39.345Z,13.07
2019-05-25T21:32:07.918Z,13.37
2019-05-25T21:34:36.495Z,14.70
2019-05-25T21:37:05.094Z,16.57
2019-05-25T21:39:33.667Z,16.17
2019-05-25T21:42:02.406Z,16.07
2019-05-25T21:44:30.972Z,14.83
2019-05-25T21:46:59.572Z,16.20
2019-05-25T21:49:28.248Z,15.93
2019-05-25T21:51:56.910Z,16.17
2019-05-25T21:54:25.510Z,16.90
2019-05-25T21:56:54.144Z,16.83
2019-05-25T21:59:22.757Z,16.77
2019-05-25T22:01:51.512Z,15.97
2019-05-25T22:04:20.172Z,17.13
2019-05-25T22:06:48.761Z,17.40
2019-05-25T22:09:17.404Z,17.53
2019-05-25T22:11:46.133Z,17.60
2019-05-25T22:14:14.722Z,16.83
2019-05-25T22:16:43.413Z,20.17
2019-05-25T22:19:12.043Z,21.60
2019-05-25T22:21:40.630Z,20.07
2019-05-25T22:24:09.200Z,19.77
2019-05-25T22:26:37.954Z,20.00
2019-05-25T22:29:06.570Z,19.97
2019-05-25T22:31:35.137Z,20.53
2019-05-25T22:34:03.795Z,20.10
2019-05-25T22:36:40.219Z,21.07
2019-05-25T22:39:03.174Z,20.73
2019-05-25T22:41:31.759Z,21.70
2019-05-25T22:44:00.360Z,21.30
2019-05-25T22:46:29.195Z,21.87
2019-05-25T22:48:57.857Z,21.80
2019-05-25T22:51:26.785Z,22.10
2019-05-25T22:53:55.619Z,20.33
2019-05-25T22:56:24.201Z,19.97
2019-05-25T22:58:52.705Z,21.10
2019-05-25T23:01:21.285Z,22.97
2019-05-25T23:03:50.144Z,26.00
2019-05-25T23:06:19.151Z,24.10
2019-05-25T23:08:47.722Z,21.73
2019-05-25T23:11:16.608Z,23.50
2019-05-25T23:13:45.191Z,23.43
2019-05-25T23:16:13.773Z,26.93
2019-05-25T23:18:42.414Z,25.00
2019-05-25T23:21:11.046Z,26.37
2019-05-25T23:23:39.718Z,23.03
2019-05-25T23:26:08.411Z,25.00
2019-05-25T23:28:36.925Z,22.33
2019-05-25T23:31:05.501Z,25.13
2019-05-25T23:33:34.091Z,24.00
2019-05-25T23:36:02.661Z,25.63
2019-05-25T23:38:31.349Z,26.77
2019-05-25T23:40:59.997Z,27.97
2019-05-25T23:43:28.605Z,29.77
2019-05-25T23:45:57.175Z,27.93
2019-05-25T23:48:25.734Z,28.00
2019-05-25T23:50:54.313Z,30.97
2019-05-25T23:53:22.959Z,29.03
2019-05-25T23:55:51.653Z,29.10
2019-05-25T23:58:20.257Z,29.47
